Time;durP1;ratioP1;P1;durP2;ratioP2;P2;SDS_P1;SDS_P2;PMS_P1;PMS_P2;Temp;Humidity;BMP_temperature;BMP_pressure;BME280_temperature;BME280_humidity;BME280_pressure;Samples;Min_cycle;Max_cycle;Signal;HPM_P1;HPM_P2
2022/06/30 00:02:16;;;;;;;11.20;9.45;;;;;;;;;;4792166;29;20237;-81
2022/06/30 00:04:44;;;;;;;13.25;10.30;;;;;;;;;;4826479;29;20061;-81
2022/06/30 00:07:11;;;;;;;12.15;9.50;;;;;;;;;;4817459;29;20060;-82
2022/06/30 00:09:40;;;;;;;13.40;8.90;;;;;;;;;;4818978;29;20041;-81
2022/06/30 00:12:07;;;;;;;14.77;9.13;;;;;;;;;;4826452;29;20125;-78
2022/06/30 00:14:35;;;;;;;13.35;8.55;;;;;;;;;;4807921;29;20042;-80
2022/06/30 00:17:03;;;;;;;12.30;9.32;;;;;;;;;;4826897;29;20104;-81
2022/06/30 00:19:31;;;;;;;9.55;7.65;;;;;;;;;;4824559;29;20133;-80
2022/06/30 00:21:58;;;;;;;15.80;8.98;;;;;;;;;;4848649;29;20094;-80
2022/06/30 00:24:25;;;;;;;15.90;9.38;;;;;;;;;;4825472;29;20054;-80
2022/06/30 00:26:54;;;;;;;13.43;9.25;;;;;;;;;;4814952;29;20054;-81
2022/06/30 00:29:21;;;;;;;14.25;8.50;;;;;;;;;;4838441;29;20054;-80
2022/06/30 00:31:49;;;;;;;13.35;8.80;;;;;;;;;;4857396;29;20075;-82
2022/06/30 00:34:16;;;;;;;13.60;7.53;;;;;;;;;;4822641;29;20058;-78
2022/06/30 00:36:44;;;;;;;8.15;7.30;;;;;;;;;;4814748;29;20061;-78
2022/06/30 00:39:12;;;;;;;12.32;9.10;;;;;;;;;;4795982;29;20050;-79
2022/06/30 00:41:40;;;;;;;18.17;9.18;;;;;;;;;;4824623;29;20105;-82
2022/06/30 00:44:07;;;;;;;10.80;8.50;;;;;;;;;;4828589;29;20049;-82
2022/06/30 00:46:35;;;;;;;15.20;9.65;;;;;;;;;;4852131;29;20041;-80
2022/06/30 00:49:02;;;;;;;19.55;9.80;;;;;;;;;;4827542;29;20050;-78
2022/06/30 00:51:30;;;;;;;13.88;9.65;;;;;;;;;;4791580;29;20096;-79
2022/06/30 00:53:59;;;;;;;9.43;8.00;;;;;;;;;;4818211;29;20300;-81
2022/06/30 00:56:27;;;;;;;11.55;8.70;;;;;;;;;;4813711;29;20169;-79
2022/06/30 00:58:58;;;;;;;9.95;8.75;;;;;;;;;;4831107;29;20042;-79
2022/06/30 01:01:26;;;;;;;14.10;9.35;;;;;;;;;;4834217;29;20073;-79
2022/06/30 01:03:55;;;;;;;7.55;6.85;;;;;;;;;;4821548;29;20423;-78
2022/06/30 01:06:23;;;;;;;8.02;6.00;;;;;;;;;;4822831;29;20049;-78
2022/06/30 01:08:51;;;;;;;11.23;5.93;;;;;;;;;;4808380;29;20141;-82
2022/06/30 01:14:04;;;;;;;10.30;7.05;;;;;;;;;;4811440;29;20114;-80
2022/06/30 01:16:32;;;;;;;11.45;7.53;;;;;;;;;;4811300;29;20468;-78
2022/06/30 01:18:59;;;;;;;10.30;7.95;;;;;;;;;;4848931;29;20049;-79
2022/06/30 01:21:27;;;;;;;14.52;9.32;;;;;;;;;;4821010;29;20061;-80
2022/06/30 01:23:55;;;;;;;13.38;9.27;;;;;;;;;;4825127;29;20053;-82
2022/06/30 01:26:24;;;;;;;13.13;9.30;;;;;;;;;;4833190;29;20511;-78
2022/06/30 01:28:52;;;;;;;14.57;9.57;;;;;;;;;;4825473;29;20145;-80
2022/06/30 01:31:19;;;;;;;11.98;9.32;;;;;;;;;;4819961;29;20080;-78
2022/06/30 01:33:47;;;;;;;15.52;10.63;;;;;;;;;;4819022;29;20144;-78
2022/06/30 01:36:14;;;;;;;13.52;10.38;;;;;;;;;;4845232;29;20459;-79
2022/06/30 01:38:42;;;;;;;12.88;9.95;;;;;;;;;;4812530;29;20103;-78
2022/06/30 01:41:10;;;;;;;13.23;9.98;;;;;;;;;;4803258;29;20595;-78
2022/06/30 01:43:37;;;;;;;15.20;9.52;;;;;;;;;;4785099;29;20110;-81
2022/06/30 01:46:04;;;;;;;14.77;9.93;;;;;;;;;;4825878;29;20050;-82
2022/06/30 01:48:32;;;;;;;17.25;9.93;;;;;;;;;;4803309;29;20049;-78
2022/06/30 01:50:59;;;;;;;12.30;8.98;;;;;;;;;;4816465;29;20058;-80
2022/06/30 01:53:27;;;;;;;8.93;6.97;;;;;;;;;;4804378;29;20260;-82
2022/06/30 01:55:54;;;;;;;7.97;6.95;;;;;;;;;;4833434;29;20053;-78
2022/06/30 01:58:22;;;;;;;10.50;7.63;;;;;;;;;;4835298;29;20456;-79
2022/06/30 02:00:49;;;;;;;9.02;7.18;;;;;;;;;;4820825;29;20499;-80
2022/06/30 02:03:17;;;;;;;7.03;6.43;;;;;;;;;;4806026;29;20510;-78
2022/06/30 02:05:45;;;;;;;7.57;5.60;;;;;;;;;;4833220;29;20070;-78
2022/06/30 02:08:12;;;;;;;7.70;6.53;;;;;;;;;;4806471;29;20072;-80
2022/06/30 02:10:40;;;;;;;7.85;6.93;;;;;;;;;;4833568;29;20058;-81
2022/06/30 02:13:08;;;;;;;7.00;6.30;;;;;;;;;;4856431;24;20430;-75
2022/06/30 02:15:36;;;;;;;7.55;6.72;;;;;;;;;;4863039;29;20045;-75
2022/06/30 02:18:06;;;;;;;9.95;7.65;;;;;;;;;;4849183;29;20784;-75
2022/06/30 02:20:34;;;;;;;11.60;7.70;;;;;;;;;;4862704;29;20041;-75
2022/06/30 02:23:02;;;;;;;12.70;7.07;;;;;;;;;;4866951;29;20062;-75
2022/06/30 02:25:30;;;;;;;8.48;7.63;;;;;;;;;;4860226;29;20455;-75
2022/06/30 02:27:58;;;;;;;9.50;6.78;;;;;;;;;;4857149;29;20037;-75
2022/06/30 02:30:26;;;;;;;7.43;6.57;;;;;;;;;;4841794;29;20042;-75
2022/06/30 02:32:53;;;;;;;7.38;6.68;;;;;;;;;;4865095;29;20128;-75
2022/06/30 02:35:21;;;;;;;13.70;7.53;;;;;;;;;;4865082;29;20503;-75
2022/06/30 02:37:48;;;;;;;11.82;6.32;;;;;;;;;;4862294;29;20398;-75
2022/06/30 02:40:16;;;;;;;10.77;7.88;;;;;;;;;;4843538;29;20125;-75
2022/06/30 02:42:43;;;;;;;8.70;7.70;;;;;;;;;;4860724;29;20701;-75
2022/06/30 02:45:11;;;;;;;10.82;8.63;;;;;;;;;;4845801;29;20140;-75
2022/06/30 02:47:42;;;;;;;10.77;6.57;;;;;;;;;;4842084;29;20478;-75
2022/06/30 02:50:11;;;;;;;6.75;6.07;;;;;;;;;;4845289;29;20117;-75
2022/06/30 02:52:38;;;;;;;9.95;7.82;;;;;;;;;;4841631;29;20052;-75
2022/06/30 02:55:06;;;;;;;13.88;9.00;;;;;;;;;;4863531;29;20113;-75
2022/06/30 02:57:35;;;;;;;12.10;9.50;;;;;;;;;;4863686;29;20464;-75
2022/06/30 03:00:03;;;;;;;11.90;9.25;;;;;;;;;;4857866;29;20132;-75
2022/06/30 03:02:30;;;;;;;9.60;7.85;;;;;;;;;;4861856;29;20041;-75
2022/06/30 03:04:58;;;;;;;9.63;8.50;;;;;;;;;;4839091;29;20041;-75
2022/06/30 03:07:25;;;;;;;13.10;8.55;;;;;;;;;;4840105;29;20132;-75
2022/06/30 03:09:53;;;;;;;12.57;10.38;;;;;;;;;;4863040;29;20593;-76
2022/06/30 03:12:20;;;;;;;12.20;9.25;;;;;;;;;;4859567;29;20398;-75
2022/06/30 03:14:47;;;;;;;11.68;9.85;;;;;;;;;;4843010;29;20053;-75
2022/06/30 03:17:15;;;;;;;12.90;9.25;;;;;;;;;;4843247;29;20065;-75
2022/06/30 03:19:42;;;;;;;10.73;9.48;;;;;;;;;;4857876;29;20045;-75
2022/06/30 03:22:10;;;;;;;19.17;10.85;;;;;;;;;;4861995;29;20155;-75
2022/06/30 03:24:37;;;;;;;23.33;12.05;;;;;;;;;;4867124;29;20061;-75
2022/06/30 03:27:05;;;;;;;16.80;10.93;;;;;;;;;;4869971;29;20128;-75
2022/06/30 03:29:32;;;;;;;14.05;9.73;;;;;;;;;;4862159;29;20080;-76
2022/06/30 03:31:59;;;;;;;14.55;9.90;;;;;;;;;;4859937;29;20136;-76
2022/06/30 03:34:27;;;;;;;13.13;10.20;;;;;;;;;;4865504;29;20041;-76
2022/06/30 03:36:54;;;;;;;9.75;8.02;;;;;;;;;;4859788;29;20552;-75
2022/06/30 03:39:22;;;;;;;10.05;8.77;;;;;;;;;;4856209;29;20073;-76
2022/06/30 03:41:49;;;;;;;10.95;9.52;;;;;;;;;;4859993;29;20128;-75
2022/06/30 03:44:17;;;;;;;14.93;10.15;;;;;;;;;;4850088;29;20525;-75
2022/06/30 03:46:45;;;;;;;16.10;11.77;;;;;;;;;;4857769;29;20443;-76
2022/06/30 03:49:13;;;;;;;17.30;11.25;;;;;;;;;;4846917;29;20108;-75
2022/06/30 03:51:40;;;;;;;11.98;8.80;;;;;;;;;;4863890;29;20045;-75
2022/06/30 03:54:07;;;;;;;12.65;9.52;;;;;;;;;;4851047;29;20057;-75
2022/06/30 03:56:35;;;;;;;17.98;10.18;;;;;;;;;;4853487;29;20159;-75
2022/06/30 03:59:02;;;;;;;18.23;12.27;;;;;;;;;;4852059;29;20093;-75
2022/06/30 04:01:30;;;;;;;15.00;11.05;;;;;;;;;;4849027;29;20096;-78
2022/06/30 04:03:57;;;;;;;14.73;10.60;;;;;;;;;;4855263;29;20048;-76
2022/06/30 04:06:30;;;;;;;16.33;12.90;;;;;;;;;;4850624;29;20053;-78
2022/06/30 04:08:57;;;;;;;14.35;11.43;;;;;;;;;;4842124;29;20569;-76
2022/06/30 04:11:25;;;;;;;17.30;11.65;;;;;;;;;;4858085;29;20403;-75
2022/06/30 04:13:52;;;;;;;12.35;10.40;;;;;;;;;;4860535;29;20049;-76
2022/06/30 04:16:19;;;;;;;13.43;10.85;;;;;;;;;;4861555;29;20113;-76
2022/06/30 04:18:47;;;;;;;20.88;11.85;;;;;;;;;;4866128;29;20041;-76
2022/06/30 04:21:16;;;;;;;14.73;11.48;;;;;;;;;;4854602;29;20550;-76
2022/06/30 04:23:44;;;;;;;17.10;12.40;;;;;;;;;;4854556;29;20037;-76
2022/06/30 04:26:11;;;;;;;15.75;11.32;;;;;;;;;;4861319;29;20124;-75
2022/06/30 04:28:39;;;;;;;13.13;9.90;;;;;;;;;;4859516;29;20573;-75
2022/06/30 04:33:52;;;;;;;15.43;10.45;;;;;;;;;;4857414;29;20081;-76
2022/06/30 04:36:20;;;;;;;11.77;8.18;;;;;;;;;;4852186;29;20526;-75
2022/06/30 04:38:47;;;;;;;13.05;10.35;;;;;;;;;;4841335;29;20064;-75
2022/06/30 04:41:24;;;;;;;11.70;10.50;;;;;;;;;;4844042;29;20402;-75
2022/06/30 04:43:55;;;;;;;13.85;11.00;;;;;;;;;;4855225;29;20038;-76
2022/06/30 04:46:23;;;;;;;17.13;11.52;;;;;;;;;;4854727;29;20136;-77
2022/06/30 04:48:51;;;;;;;14.40;11.52;;;;;;;;;;4857572;29;20049;-77
2022/06/30 04:51:18;;;;;;;11.10;9.88;;;;;;;;;;4856427;29;20140;-76
2022/06/30 04:53:46;;;;;;;13.30;10.02;;;;;;;;;;4839751;29;20117;-76
2022/06/30 04:56:14;;;;;;;12.30;10.23;;;;;;;;;;4855131;29;20077;-77
2022/06/30 04:58:42;;;;;;;13.77;10.07;;;;;;;;;;4853690;29;20045;-77
2022/06/30 05:01:10;;;;;;;13.35;9.88;;;;;;;;;;4862448;29;20065;-77
2022/06/30 05:03:37;;;;;;;14.05;10.90;;;;;;;;;;4844603;29;20128;-77
2022/06/30 05:06:06;;;;;;;13.07;10.75;;;;;;;;;;4858958;29;20226;-77
2022/06/30 05:08:33;;;;;;;13.35;10.90;;;;;;;;;;4832694;29;20136;-77
2022/06/30 05:11:01;;;;;;;13.48;10.35;;;;;;;;;;4849847;29;20317;-76
2022/06/30 05:13:28;;;;;;;11.48;10.02;;;;;;;;;;4861365;29;20048;-76
2022/06/30 05:15:55;;;;;;;14.73;10.50;;;;;;;;;;4861393;29;20041;-76
2022/06/30 05:18:26;;;;;;;11.90;9.38;;;;;;;;;;4869663;29;20498;-77
2022/06/30 05:20:54;;;;;;;16.85;10.10;;;;;;;;;;4844086;29;20399;-77
2022/06/30 05:23:21;;;;;;;13.55;10.75;;;;;;;;;;4857963;29;20046;-77
2022/06/30 05:28:35;;;;;;;12.85;10.18;;;;;;;;;;4853770;29;20600;-77
2022/06/30 05:31:02;;;;;;;9.27;8.38;;;;;;;;;;4853583;29;20464;-76
2022/06/30 05:33:30;;;;;;;11.43;10.23;;;;;;;;;;4844422;29;20048;-77
2022/06/30 05:35:58;;;;;;;12.98;10.95;;;;;;;;;;4845705;29;20455;-77
2022/06/30 05:38:25;;;;;;;12.70;10.73;;;;;;;;;;4844825;29;20447;-76
2022/06/30 05:40:53;;;;;;;12.10;10.18;;;;;;;;;;4855759;29;20369;-77
2022/06/30 05:43:21;;;;;;;13.13;10.43;;;;;;;;;;4869322;29;20076;-77
2022/06/30 05:45:53;;;;;;;11.00;9.70;;;;;;;;;;4851643;29;20140;-76
2022/06/30 05:48:21;;;;;;;12.32;10.18;;;;;;;;;;4838515;29;20049;-76
2022/06/30 05:50:49;;;;;;;13.30;9.68;;;;;;;;;;4857579;29;20140;-77
2022/06/30 05:53:17;;;;;;;16.27;10.38;;;;;;;;;;4864126;29;20188;-76
2022/06/30 05:55:44;;;;;;;14.35;10.32;;;;;;;;;;4858534;29;20045;-77
2022/06/30 05:58:14;;;;;;;9.95;9.02;;;;;;;;;;4852697;29;20136;-77
2022/06/30 06:00:41;;;;;;;13.02;9.45;;;;;;;;;;4855849;29;20037;-76
2022/06/30 06:03:09;;;;;;;11.75;10.55;;;;;;;;;;4855618;29;20079;-77
2022/06/30 06:05:36;;;;;;;10.07;9.07;;;;;;;;;;4872362;29;20049;-77
2022/06/30 06:08:07;;;;;;;9.73;8.82;;;;;;;;;;4854276;29;20040;-77
2022/06/30 06:10:35;;;;;;;11.55;10.35;;;;;;;;;;4840502;29;20109;-77
2022/06/30 06:13:03;;;;;;;10.73;8.95;;;;;;;;;;4856405;29;20091;-77
2022/06/30 06:15:31;;;;;;;11.73;8.35;;;;;;;;;;4858964;29;20594;-77
2022/06/30 06:17:58;;;;;;;11.68;9.43;;;;;;;;;;4857355;29;20136;-76
2022/06/30 06:20:28;;;;;;;10.95;9.77;;;;;;;;;;4840522;29;20150;-76
2022/06/30 06:22:56;;;;;;;11.18;9.90;;;;;;;;;;4853802;29;20505;-77
2022/06/30 06:25:24;;;;;;;12.55;9.45;;;;;;;;;;4840098;29;20142;-77
2022/06/30 06:30:38;;;;;;;11.07;9.00;;;;;;;;;;4840675;29;20507;-77
2022/06/30 06:33:05;;;;;;;10.05;8.65;;;;;;;;;;4850554;29;20049;-77
2022/06/30 06:35:33;;;;;;;12.80;9.57;;;;;;;;;;4856302;29;20097;-77
2022/06/30 06:38:01;;;;;;;10.48;9.43;;;;;;;;;;4855042;29;20578;-77
2022/06/30 06:40:29;;;;;;;9.93;8.98;;;;;;;;;;4850714;29;20091;-77
2022/06/30 06:42:56;;;;;;;10.23;9.23;;;;;;;;;;4847688;29;20046;-77
2022/06/30 06:45:24;;;;;;;12.02;9.60;;;;;;;;;;4855989;29;20053;-77
2022/06/30 06:47:51;;;;;;;10.68;8.48;;;;;;;;;;4856027;29;20148;-77
2022/06/30 06:50:19;;;;;;;10.85;9.07;;;;;;;;;;4851102;29;20145;-77
2022/06/30 06:52:46;;;;;;;10.88;9.02;;;;;;;;;;4831389;29;20159;-78
2022/06/30 06:55:16;;;;;;;10.32;9.10;;;;;;;;;;4865684;29;20049;-77
2022/06/30 06:57:43;;;;;;;10.15;9.13;;;;;;;;;;4856370;29;20042;-77
2022/06/30 07:00:12;;;;;;;11.13;8.23;;;;;;;;;;4854000;29;20141;-77
2022/06/30 07:02:40;;;;;;;11.68;8.32;;;;;;;;;;4838693;29;20570;-77
2022/06/30 07:05:09;;;;;;;10.35;8.80;;;;;;;;;;4852992;29;20045;-77
2022/06/30 07:07:37;;;;;;;10.35;7.97;;;;;;;;;;4849770;29;20140;-77
2022/06/30 07:10:08;;;;;;;11.18;8.10;;;;;;;;;;4839178;29;20056;-77
2022/06/30 07:12:36;;;;;;;10.52;8.05;;;;;;;;;;4835483;29;20075;-77
2022/06/30 07:15:03;;;;;;;8.13;7.28;;;;;;;;;;4859551;29;20507;-77
2022/06/30 07:17:35;;;;;;;8.10;7.22;;;;;;;;;;4856850;29;20514;-77
2022/06/30 07:20:02;;;;;;;8.98;7.95;;;;;;;;;;4849633;29;20554;-77
2022/06/30 07:22:30;;;;;;;8.10;7.30;;;;;;;;;;4857054;29;20152;-77
2022/06/30 07:24:57;;;;;;;9.30;8.27;;;;;;;;;;4867398;29;20052;-77
2022/06/30 07:27:25;;;;;;;8.00;7.30;;;;;;;;;;4847459;29;20161;-77
2022/06/30 07:29:52;;;;;;;8.15;7.35;;;;;;;;;;4849929;29;20096;-76
2022/06/30 07:32:19;;;;;;;9.43;7.85;;;;;;;;;;4829036;29;20139;-77
2022/06/30 07:34:47;;;;;;;11.63;7.50;;;;;;;;;;4851810;29;20088;-77
2022/06/30 07:37:14;;;;;;;9.85;7.40;;;;;;;;;;4838083;29;20061;-77
2022/06/30 07:39:42;;;;;;;10.07;7.88;;;;;;;;;;4855747;29;20052;-77
2022/06/30 07:42:09;;;;;;;7.63;7.00;;;;;;;;;;4850412;29;20049;-77
2022/06/30 07:44:37;;;;;;;7.82;7.13;;;;;;;;;;4849855;29;20124;-78
2022/06/30 07:47:04;;;;;;;7.57;6.88;;;;;;;;;;4845592;29;20044;-77
2022/06/30 07:49:32;;;;;;;7.85;6.82;;;;;;;;;;4863755;29;20136;-77
2022/06/30 07:51:59;;;;;;;10.60;6.95;;;;;;;;;;4859849;29;20043;-76
2022/06/30 07:54:27;;;;;;;8.65;7.85;;;;;;;;;;4855138;29;20530;-77
2022/06/30 07:56:54;;;;;;;7.75;7.03;;;;;;;;;;4853269;29;20033;-77
2022/06/30 07:59:41;;;;;;;9.50;7.22;;;;;;;;;;4849898;29;20092;-76
2022/06/30 08:02:09;;;;;;;7.90;7.10;;;;;;;;;;4853854;29;20069;-78
2022/06/30 08:04:37;;;;;;;7.18;6.40;;;;;;;;;;4855967;29;20120;-76
2022/06/30 08:07:05;;;;;;;12.38;6.53;;;;;;;;;;4854615;29;20045;-75
2022/06/30 08:09:33;;;;;;;7.22;6.53;;;;;;;;;;4849914;29;20077;-76
2022/06/30 08:12:00;;;;;;;7.38;6.68;;;;;;;;;;4885529;23;20033;-77
2022/06/30 08:14:28;;;;;;;6.85;6.15;;;;;;;;;;4835999;29;20037;-81
2022/06/30 08:16:55;;;;;;;7.20;6.50;;;;;;;;;;4835472;29;20045;-80
2022/06/30 08:19:23;;;;;;;7.20;6.47;;;;;;;;;;4819067;29;20077;-80
2022/06/30 08:21:51;;;;;;;6.78;6.07;;;;;;;;;;4832909;29;20081;-80
2022/06/30 08:24:18;;;;;;;6.38;5.88;;;;;;;;;;4811927;29;20057;-81
2022/06/30 08:26:46;;;;;;;8.75;6.55;;;;;;;;;;4831988;29;20042;-80
2022/06/30 08:29:14;;;;;;;6.85;6.05;;;;;;;;;;4813309;29;20047;-80
2022/06/30 08:31:41;;;;;;;9.30;6.38;;;;;;;;;;4823510;29;20058;-80
2022/06/30 08:34:09;;;;;;;7.05;6.35;;;;;;;;;;4846300;29;20063;-81
2022/06/30 08:36:36;;;;;;;7.45;6.07;;;;;;;;;;4826180;29;20057;-80
2022/06/30 08:39:04;;;;;;;9.63;6.38;;;;;;;;;;4821892;29;20574;-80
2022/06/30 08:44:19;;;;;;;7.70;6.88;;;;;;;;;;4834032;29;20075;-79
2022/06/30 08:46:54;;;;;;;6.47;5.88;;;;;;;;;;4851356;29;20088;-80
2022/06/30 08:49:22;;;;;;;6.28;5.65;;;;;;;;;;4816411;29;20065;-80
2022/06/30 08:51:50;;;;;;;9.32;5.35;;;;;;;;;;4839434;29;20100;-80
2022/06/30 08:54:17;;;;;;;6.38;5.72;;;;;;;;;;4842751;29;20495;-80
2022/06/30 08:56:46;;;;;;;6.72;5.50;;;;;;;;;;4808703;29;20148;-81
2022/06/30 08:59:14;;;;;;;9.15;5.60;;;;;;;;;;4803647;29;20427;-80
2022/06/30 09:01:41;;;;;;;5.53;4.60;;;;;;;;;;4837856;29;20499;-81
2022/06/30 09:04:10;;;;;;;5.60;4.63;;;;;;;;;;4824675;29;20069;-81
2022/06/30 09:06:39;;;;;;;5.75;4.90;;;;;;;;;;4843013;29;20046;-80
2022/06/30 09:09:06;;;;;;;6.00;4.72;;;;;;;;;;4825081;29;20058;-81
2022/06/30 09:11:46;;;;;;;7.38;4.60;;;;;;;;;;4808869;29;20761;-81
2022/06/30 09:14:30;;;;;;;5.55;4.65;;;;;;;;;;4826397;29;20427;-81
2022/06/30 09:16:59;;;;;;;5.00;4.50;;;;;;;;;;4844417;29;20072;-80
2022/06/30 09:19:27;;;;;;;5.75;4.53;;;;;;;;;;4831149;29;20058;-79
2022/06/30 09:22:04;;;;;;;4.55;4.15;;;;;;;;;;4847818;29;20050;-79
2022/06/30 09:24:32;;;;;;;7.15;4.70;;;;;;;;;;4856288;29;20039;-79
2022/06/30 09:27:11;;;;;;;4.72;4.30;;;;;;;;;;4810099;29;20046;-79
2022/06/30 09:29:58;;;;;;;5.95;4.50;;;;;;;;;;4840738;29;20049;-80
2022/06/30 09:32:45;;;;;;;5.38;4.75;;;;;;;;;;4822835;29;20072;-79
2022/06/30 09:35:12;;;;;;;9.68;4.20;;;;;;;;;;4839244;29;20074;-79
2022/06/30 09:37:40;;;;;;;4.47;4.10;;;;;;;;;;4850449;29;20064;-79
2022/06/30 09:40:08;;;;;;;6.88;3.83;;;;;;;;;;4827858;29;20046;-80
2022/06/30 09:42:40;;;;;;;4.82;3.70;;;;;;;;;;4824051;29;20124;-79
2022/06/30 09:45:55;;;;;;;3.90;3.50;;;;;;;;;;4822335;29;20053;-79
2022/06/30 09:48:26;;;;;;;4.43;4.03;;;;;;;;;;4806798;29;20062;-80
2022/06/30 09:50:57;;;;;;;5.00;4.00;;;;;;;;;;4840870;29;20049;-80
2022/06/30 09:53:25;;;;;;;5.43;3.65;;;;;;;;;;4824735;29;20050;-80
2022/06/30 09:55:52;;;;;;;5.43;3.67;;;;;;;;;;4838749;29;20049;-79
2022/06/30 09:58:29;;;;;;;6.45;3.50;;;;;;;;;;4805618;29;20081;-79
2022/06/30 10:00:56;;;;;;;3.70;3.30;;;;;;;;;;4822587;29;20070;-79
2022/06/30 10:03:24;;;;;;;4.95;3.38;;;;;;;;;;4837208;29;20411;-80
2022/06/30 10:06:06;;;;;;;5.95;3.47;;;;;;;;;;4825366;29;20487;-79
2022/06/30 10:08:34;;;;;;;3.50;3.20;;;;;;;;;;4843729;29;20486;-80
2022/06/30 10:11:01;;;;;;;6.70;3.42;;;;;;;;;;4840771;29;20231;-80
2022/06/30 10:13:30;;;;;;;3.80;3.05;;;;;;;;;;4825650;29;20046;-79
2022/06/30 10:15:58;;;;;;;6.13;2.58;;;;;;;;;;4833304;29;20447;-80
2022/06/30 10:18:27;;;;;;;7.40;2.95;;;;;;;;;;4838445;29;20088;-78
2022/06/30 10:20:54;;;;;;;5.40;2.70;;;;;;;;;;4837252;29;20126;-79
2022/06/30 10:23:23;;;;;;;4.90;3.08;;;;;;;;;;4825319;29;20062;-80
2022/06/30 10:25:51;;;;;;;4.82;2.65;;;;;;;;;;4840273;29;20136;-79
2022/06/30 10:28:19;;;;;;;6.75;2.80;;;;;;;;;;4824578;29;20121;-79
2022/06/30 10:30:54;;;;;;;4.05;2.67;;;;;;;;;;4809787;29;20152;-79
2022/06/30 10:33:41;;;;;;;6.88;2.80;;;;;;;;;;4820529;29;20142;-79
2022/06/30 10:36:11;;;;;;;3.47;3.17;;;;;;;;;;4809550;29;20062;-79
2022/06/30 10:38:47;;;;;;;6.47;3.38;;;;;;;;;;4808194;29;20054;-79
2022/06/30 10:41:17;;;;;;;5.88;2.95;;;;;;;;;;4793906;29;20080;-79
2022/06/30 10:44:03;;;;;;;3.38;2.92;;;;;;;;;;4811218;29;20407;-80
2022/06/30 10:46:56;;;;;;;3.38;2.70;;;;;;;;;;4824114;29;20034;-79
2022/06/30 10:49:25;;;;;;;3.28;2.97;;;;;;;;;;4837763;29;20054;-79
2022/06/30 10:51:56;;;;;;;6.28;2.90;;;;;;;;;;4825879;29;20083;-79
2022/06/30 10:54:34;;;;;;;2.83;2.38;;;;;;;;;;4824684;29;20716;-80
2022/06/30 10:57:02;;;;;;;3.65;2.70;;;;;;;;;;4797992;29;20077;-80
2022/06/30 10:59:31;;;;;;;3.40;2.50;;;;;;;;;;4841874;29;20525;-81
2022/06/30 11:02:11;;;;;;;5.22;2.45;;;;;;;;;;4826053;29;20052;-79
2022/06/30 11:04:39;;;;;;;5.57;3.40;;;;;;;;;;4839456;29;20049;-79
2022/06/30 11:07:10;;;;;;;3.60;2.70;;;;;;;;;;4824917;29;20057;-79
2022/06/30 11:09:47;;;;;;;2.97;2.70;;;;;;;;;;4807272;29;20499;-79
2022/06/30 11:12:15;;;;;;;9.55;2.97;;;;;;;;;;4840640;29;20145;-79
2022/06/30 11:14:49;;;;;;;6.43;2.72;;;;;;;;;;4841605;29;20133;-79
2022/06/30 11:17:17;;;;;;;3.70;2.80;;;;;;;;;;4840008;29;20525;-79
2022/06/30 11:19:46;;;;;;;4.82;2.42;;;;;;;;;;4814336;29;20050;-79
2022/06/30 11:22:15;;;;;;;5.03;2.28;;;;;;;;;;4835906;29;20057;-78
2022/06/30 11:24:45;;;;;;;2.50;2.30;;;;;;;;;;4824365;29;20132;-78
2022/06/30 11:27:23;;;;;;;3.53;2.33;;;;;;;;;;4838574;29;20050;-79
2022/06/30 11:29:57;;;;;;;5.32;2.47;;;;;;;;;;4837309;29;20121;-79
2022/06/30 11:32:25;;;;;;;3.30;1.98;;;;;;;;;;4838940;29;20065;-79
2022/06/30 11:35:11;;;;;;;6.03;2.20;;;;;;;;;;4838677;29;20056;-79
2022/06/30 11:37:38;;;;;;;2.40;2.13;;;;;;;;;;4823599;29;20054;-79
2022/06/30 11:40:15;;;;;;;4.15;2.45;;;;;;;;;;4840674;29;20056;-79
2022/06/30 11:42:42;;;;;;;3.53;2.10;;;;;;;;;;4843386;29;20058;-79
2022/06/30 11:45:23;;;;;;;3.00;2.22;;;;;;;;;;4821065;29;20148;-79
2022/06/30 11:47:51;;;;;;;4.78;2.53;;;;;;;;;;4826191;29;20050;-80
2022/06/30 11:50:20;;;;;;;4.03;2.40;;;;;;;;;;4812428;29;20168;-79
2022/06/30 11:52:48;;;;;;;4.47;2.40;;;;;;;;;;4825969;29;20125;-79
2022/06/30 11:55:17;;;;;;;3.65;2.63;;;;;;;;;;4841226;29;20045;-80
2022/06/30 11:57:45;;;;;;;3.35;2.30;;;;;;;;;;4825938;29;20046;-80
2022/06/30 12:00:16;;;;;;;3.75;2.50;;;;;;;;;;4844187;29;20050;-80
2022/06/30 12:02:45;;;;;;;5.22;2.55;;;;;;;;;;4827675;29;20101;-79
2022/06/30 12:05:17;;;;;;;2.72;2.20;;;;;;;;;;4839706;29;20174;-80
2022/06/30 12:07:45;;;;;;;5.07;2.58;;;;;;;;;;4842423;29;20202;-80
2022/06/30 12:10:14;;;;;;;2.88;2.22;;;;;;;;;;4827232;29;20081;-78
2022/06/30 12:12:42;;;;;;;5.03;2.40;;;;;;;;;;4839900;29;20144;-80
2022/06/30 12:15:13;;;;;;;2.30;2.10;;;;;;;;;;4816727;29;20059;-79
2022/06/30 12:17:42;;;;;;;4.25;2.10;;;;;;;;;;4825327;29;20042;-78
2022/06/30 12:20:12;;;;;;;3.75;2.30;;;;;;;;;;4828617;29;20106;-78
2022/06/30 12:22:44;;;;;;;4.40;1.85;;;;;;;;;;4839035;29;20382;-83
2022/06/30 12:25:12;;;;;;;3.03;2.60;;;;;;;;;;4836481;29;20462;-79
2022/06/30 12:27:44;;;;;;;2.90;2.15;;;;;;;;;;4850617;29;20455;-80
2022/06/30 12:30:11;;;;;;;3.33;2.05;;;;;;;;;;4838812;29;20140;-80
2022/06/30 12:32:39;;;;;;;4.97;2.15;;;;;;;;;;4843844;29;20052;-78
2022/06/30 12:35:08;;;;;;;2.42;1.95;;;;;;;;;;4817475;29;20153;-78
2022/06/30 12:37:37;;;;;;;3.00;2.00;;;;;;;;;;4846244;29;20617;-77
2022/06/30 12:40:06;;;;;;;3.70;2.42;;;;;;;;;;4816070;29;20042;-79
2022/06/30 12:42:43;;;;;;;2.20;2.00;;;;;;;;;;4843575;29;20073;-78
2022/06/30 12:45:29;;;;;;;2.65;2.00;;;;;;;;;;4827107;29;20065;-82
2022/06/30 12:47:56;;;;;;;5.07;2.22;;;;;;;;;;4835989;29;20401;-80
2022/06/30 12:50:24;;;;;;;3.30;2.13;;;;;;;;;;4819893;29;20427;-78
2022/06/30 12:52:51;;;;;;;3.85;2.33;;;;;;;;;;4831882;29;20060;-79
2022/06/30 12:55:19;;;;;;;5.90;2.28;;;;;;;;;;4806233;29;20057;-82
2022/06/30 12:57:48;;;;;;;3.33;1.98;;;;;;;;;;4826598;29;20053;-78
2022/06/30 13:00:15;;;;;;;3.83;1.98;;;;;;;;;;4849254;29;21259;-82
2022/06/30 13:02:43;;;;;;;4.55;2.13;;;;;;;;;;4847241;29;20076;-80
2022/06/30 13:05:12;;;;;;;4.57;2.55;;;;;;;;;;4840921;29;20666;-80
2022/06/30 13:07:39;;;;;;;2.75;2.00;;;;;;;;;;4833840;29;20053;-79
2022/06/30 13:10:07;;;;;;;5.15;2.25;;;;;;;;;;4833316;29;20064;-80
2022/06/30 13:12:34;;;;;;;2.17;1.80;;;;;;;;;;4836691;29;20052;-80
2022/06/30 13:15:02;;;;;;;2.38;2.17;;;;;;;;;;4833756;29;20042;-79
2022/06/30 13:17:30;;;;;;;3.28;1.90;;;;;;;;;;4833123;29;20073;-79
2022/06/30 13:19:57;;;;;;;5.07;2.08;;;;;;;;;;4796116;29;20054;-82
2022/06/30 13:22:24;;;;;;;6.78;2.20;;;;;;;;;;4820130;29;20534;-81
2022/06/30 13:24:52;;;;;;;2.40;1.65;;;;;;;;;;4818766;29;20050;-82
2022/06/30 13:27:19;;;;;;;4.15;1.70;;;;;;;;;;4805752;29;20052;-82
2022/06/30 13:29:47;;;;;;;3.67;1.70;;;;;;;;;;4805630;29;20046;-81
2022/06/30 13:32:14;;;;;;;5.28;1.58;;;;;;;;;;4822407;29;20050;-79
2022/06/30 13:34:41;;;;;;;3.30;1.65;;;;;;;;;;4815432;29;20050;-80
2022/06/30 13:37:09;;;;;;;5.38;1.85;;;;;;;;;;4792000;29;20064;-82
2022/06/30 13:39:36;;;;;;;2.72;1.70;;;;;;;;;;4818047;29;20077;-82
2022/06/30 13:42:04;;;;;;;4.38;1.73;;;;;;;;;;4817549;29;20544;-82
2022/06/30 13:44:31;;;;;;;3.92;1.90;;;;;;;;;;4821411;29;20144;-82
2022/06/30 13:46:59;;;;;;;5.30;2.30;;;;;;;;;;4795156;29;20224;-80
2022/06/30 13:49:27;;;;;;;3.92;1.65;;;;;;;;;;4794882;29;20129;-80
2022/06/30 13:51:55;;;;;;;4.70;1.85;;;;;;;;;;4823542;29;20445;-82
2022/06/30 13:54:22;;;;;;;2.70;1.63;;;;;;;;;;4816098;29;20126;-79
2022/06/30 13:56:51;;;;;;;8.10;1.77;;;;;;;;;;4819767;29;20050;-81
2022/06/30 13:59:18;;;;;;;3.60;2.00;;;;;;;;;;4806609;29;20053;-80
2022/06/30 14:01:46;;;;;;;3.63;1.92;;;;;;;;;;4825895;29;20459;-80
2022/06/30 14:04:16;;;;;;;4.43;1.80;;;;;;;;;;4809626;29;20527;-78
2022/06/30 14:06:46;;;;;;;2.00;1.45;;;;;;;;;;4826049;29;20451;-81
2022/06/30 14:09:13;;;;;;;4.05;1.67;;;;;;;;;;4814096;29;20049;-79
2022/06/30 14:11:41;;;;;;;5.45;1.70;;;;;;;;;;4806001;29;20057;-81
2022/06/30 14:14:08;;;;;;;2.92;1.60;;;;;;;;;;4838580;24;20464;-78
2022/06/30 14:16:35;;;;;;;7.28;1.98;;;;;;;;;;4821490;29;20163;-78
2022/06/30 14:19:03;;;;;;;4.03;1.48;;;;;;;;;;4822350;29;20078;-78
2022/06/30 14:21:32;;;;;;;4.40;1.50;;;;;;;;;;4804284;29;20046;-78
2022/06/30 14:24:00;;;;;;;5.20;1.85;;;;;;;;;;4822757;29;20046;-78
2022/06/30 14:26:27;;;;;;;3.75;1.50;;;;;;;;;;4804679;29;20104;-79
2022/06/30 14:28:54;;;;;;;2.80;1.70;;;;;;;;;;4817410;29;20184;-79
2022/06/30 14:31:22;;;;;;;9.10;1.67;;;;;;;;;;4819950;29;20074;-79
2022/06/30 14:33:50;;;;;;;4.65;1.70;;;;;;;;;;4812249;29;20046;-78
2022/06/30 14:36:18;;;;;;;6.20;2.28;;;;;;;;;;4819360;29;20062;-78
2022/06/30 14:38:46;;;;;;;3.92;1.60;;;;;;;;;;4803624;29;20083;-78
2022/06/30 14:42:43;;;;;;;3.45;1.88;;;;;;;;;;4801506;29;20065;-78
2022/06/30 14:44:01;;;;;;;4.85;1.58;;;;;;;;;;4817023;29;20074;-78
2022/06/30 14:46:28;;;;;;;5.88;1.98;;;;;;;;;;4790234;29;20414;-78
2022/06/30 14:48:55;;;;;;;3.90;1.60;;;;;;;;;;4818141;29;20050;-78
2022/06/30 14:51:39;;;;;;;2.03;1.52;;;;;;;;;;4810717;29;20046;-79
2022/06/30 14:54:07;;;;;;;5.50;1.58;;;;;;;;;;4827351;29;20107;-79
2022/06/30 14:56:34;;;;;;;3.85;1.75;;;;;;;;;;4825714;29;20102;-78
2022/06/30 14:59:02;;;;;;;3.95;1.45;;;;;;;;;;4807291;29;20058;-78
2022/06/30 15:01:29;;;;;;;2.83;1.80;;;;;;;;;;4811045;29;20205;-78